Xiamen Gaoqi International Airport
ZSAM : now visible

Airfield :











YOU CAN JOIN US ON...

 
LOGIN :

Register | Disclaimer

   EN    FR    IT 

 









Legend :    VFR   Marginal VFR   IFR   Intensive IFR   Very Intensive IFR
Visi :
Ceiling :
>= 8 km
>= 3000ft
5 to 8 km
1000 to 3000 ft
1500m to 5 km
500 to 1000 ft
800 to 1500m
200 to 500 ft
< 800m
< 200 ft
Symbols :   Thunderstorms  Fog  Heavy snow  Heavy precipitations  Wind > 20 kt






- Airport Elevation : 59 ft
- IATA code : XMN


ZSAM - Xiamen Gaoqi International

CURRENT METAR :
  • 220000Z 05003MPS 3500 BR SCT010 BKN020 20/20 Q1018 NOSIG

EXPIRED METARs :
  • 212300Z 03001MPS 5000 BR FEW020 BKN030 19/19 Q1017 NOSIG
  • 212200Z VRB01MPS 5000 BR FEW010 19/19 Q1017 BECMG TL2230 0800 FG
  • 212100Z 04002MPS 0300 R05/0450N FG VV008 19/19 Q1016 BECMG TL2150 0500
  • 212000Z 03002MPS 8000 SCT010 19/19 Q1015 BECMG TL2150 BKN008 OVC020

TAF TAF ZSAM
Valid from the 22 at 00:00 until the 23 at 00:00 UTC


212107Z 2200/2224 07005G10MPS 1200 BR BKN004 TX21/2200Z TN13/2221Z
BECMG 2201/2202 5000 SCT007 BKN020
ZSHA FIR / Asia



MET'MAP, your aeronautical weather chart ! - Copyright ORBIFLY December 2007 - Disclaimer

ORBIFLY MET'MAP TEAM :

Programming & Development : Alexandra Zaïnal
Original concept : Baudouin d'Aumeries
Technical & hardware support : Manuel Goepfert
Assistance : Marc-Olivier Méhu




SOURCES & CREDITS :

   NOAA       Earth
Advisory